sensor_id;sensor_type;location;lat;lon;timestamp;temperature;humidity
15717;DHT22;7960;50.908;4.204;2023-07-02T00:01:53;17.00;99.90
15717;DHT22;7960;50.908;4.204;2023-07-02T00:04:20;17.00;99.90
15717;DHT22;7960;50.908;4.204;2023-07-02T00:06:47;17.00;99.90
15717;DHT22;7960;50.908;4.204;2023-07-02T00:09:14;16.90;99.90
15717;DHT22;7960;50.908;4.204;2023-07-02T00:11:43;16.90;99.90
15717;DHT22;7960;50.908;4.204;2023-07-02T00:14:11;16.90;99.90
15717;DHT22;7960;50.908;4.204;2023-07-02T00:16:42;16.80;99.90
15717;DHT22;7960;50.908;4.204;2023-07-02T00:19:10;16.90;99.90
15717;DHT22;7960;50.908;4.204;2023-07-02T00:21:37;16.90;99.90
15717;DHT22;7960;50.908;4.204;2023-07-02T00:24:05;16.90;99.90
15717;DHT22;7960;50.908;4.204;2023-07-02T00:26:32;16.90;99.90
15717;DHT22;7960;50.908;4.204;2023-07-02T00:28:59;16.80;99.90
15717;DHT22;7960;50.908;4.204;2023-07-02T00:31:26;16.90;99.90
15717;DHT22;7960;50.908;4.204;2023-07-02T00:33:53;16.90;99.90
15717;DHT22;7960;50.908;4.204;2023-07-02T00:36:21;16.90;99.90
15717;DHT22;7960;50.908;4.204;2023-07-02T00:38:49;16.80;99.90
15717;DHT22;7960;50.908;4.204;2023-07-02T00:41:16;16.80;99.90
15717;DHT22;7960;50.908;4.204;2023-07-02T00:43:43;16.80;99.90
15717;DHT22;7960;50.908;4.204;2023-07-02T00:46:13;16.80;99.90
15717;DHT22;7960;50.908;4.204;2023-07-02T00:48:44;16.70;99.90
15717;DHT22;7960;50.908;4.204;2023-07-02T00:51:12;16.80;99.90
15717;DHT22;7960;50.908;4.204;2023-07-02T00:53:41;16.80;99.90
15717;DHT22;7960;50.908;4.204;2023-07-02T00:56:10;16.80;99.90
15717;DHT22;7960;50.908;4.204;2023-07-02T00:58:41;16.80;99.90
15717;DHT22;7960;50.908;4.204;2023-07-02T01:01:14;16.70;99.90
15717;DHT22;7960;50.908;4.204;2023-07-02T01:03:52;16.80;99.90
15717;DHT22;7960;50.908;4.204;2023-07-02T01:06:22;16.80;99.90
15717;DHT22;7960;50.908;4.204;2023-07-02T01:08:54;16.80;99.90
15717;DHT22;7960;50.908;4.204;2023-07-02T01:11:23;16.70;99.90
15717;DHT22;7960;50.908;4.204;2023-07-02T01:13:53;16.60;99.90
15717;DHT22;7960;50.908;4.204;2023-07-02T01:16:21;16.70;99.90
15717;DHT22;7960;50.908;4.204;2023-07-02T01:18:49;16.70;99.90
15717;DHT22;7960;50.908;4.204;2023-07-02T01:21:22;16.70;99.90
15717;DHT22;7960;50.908;4.204;2023-07-02T01:23:49;16.70;99.90
15717;DHT22;7960;50.908;4.204;2023-07-02T01:26:16;16.70;99.90
15717;DHT22;7960;50.908;4.204;2023-07-02T01:28:43;16.70;99.90
15717;DHT22;7960;50.908;4.204;2023-07-02T01:31:11;16.60;99.90
15717;DHT22;7960;50.908;4.204;2023-07-02T01:33:38;16.70;99.90
15717;DHT22;7960;50.908;4.204;2023-07-02T01:36:05;16.70;99.90
15717;DHT22;7960;50.908;4.204;2023-07-02T01:38:33;16.70;99.90
15717;DHT22;7960;50.908;4.204;2023-07-02T01:41:00;16.80;99.90
15717;DHT22;7960;50.908;4.204;2023-07-02T01:43:27;16.80;99.90
15717;DHT22;7960;50.908;4.204;2023-07-02T01:45:54;16.70;99.90
15717;DHT22;7960;50.908;4.204;2023-07-02T01:48:21;16.70;99.90
15717;DHT22;7960;50.908;4.204;2023-07-02T01:50:48;16.70;99.90
15717;DHT22;7960;50.908;4.204;2023-07-02T01:53:15;16.80;99.90
15717;DHT22;7960;50.908;4.204;2023-07-02T01:55:43;16.60;99.90
15717;DHT22;7960;50.908;4.204;2023-07-02T01:58:10;16.70;99.90
15717;DHT22;7960;50.908;4.204;2023-07-02T02:00:36;16.70;99.90
15717;DHT22;7960;50.908;4.204;2023-07-02T02:03:04;16.70;99.90
15717;DHT22;7960;50.908;4.204;2023-07-02T02:05:31;16.70;99.90
15717;DHT22;7960;50.908;4.204;2023-07-02T02:07:58;16.60;99.90
15717;DHT22;7960;50.908;4.204;2023-07-02T02:10:25;16.60;99.90
15717;DHT22;7960;50.908;4.204;2023-07-02T02:12:53;16.60;99.90
15717;DHT22;7960;50.908;4.204;2023-07-02T02:15:20;16.60;99.90
15717;DHT22;7960;50.908;4.204;2023-07-02T02:17:46;16.60;99.90
15717;DHT22;7960;50.908;4.204;2023-07-02T02:20:13;16.60;99.90
15717;DHT22;7960;50.908;4.204;2023-07-02T02:22:40;16.70;99.90
15717;DHT22;7960;50.908;4.204;2023-07-02T02:25:08;16.70;99.90
15717;DHT22;7960;50.908;4.204;2023-07-02T02:27:35;16.70;99.90
15717;DHT22;7960;50.908;4.204;2023-07-02T02:30:04;16.70;99.90
15717;DHT22;7960;50.908;4.204;2023-07-02T02:32:31;16.60;99.90
15717;DHT22;7960;50.908;4.204;2023-07-02T02:34:58;16.60;99.90
15717;DHT22;7960;50.908;4.204;2023-07-02T02:37:24;16.50;99.90
15717;DHT22;7960;50.908;4.204;2023-07-02T02:39:51;16.60;99.90
15717;DHT22;7960;50.908;4.204;2023-07-02T02:42:18;16.50;99.90
15717;DHT22;7960;50.908;4.204;2023-07-02T02:44:45;16.50;99.90
15717;DHT22;7960;50.908;4.204;2023-07-02T02:47:13;16.50;99.90
15717;DHT22;7960;50.908;4.204;2023-07-02T02:49:40;16.50;99.90
15717;DHT22;7960;50.908;4.204;2023-07-02T02:52:07;16.50;99.90
15717;DHT22;7960;50.908;4.204;2023-07-02T02:54:33;16.60;99.90
15717;DHT22;7960;50.908;4.204;2023-07-02T02:57:00;16.50;99.90
15717;DHT22;7960;50.908;4.204;2023-07-02T02:59:27;16.60;99.90
15717;DHT22;7960;50.908;4.204;2023-07-02T03:01:54;16.60;99.90
15717;DHT22;7960;50.908;4.204;2023-07-02T03:04:22;16.60;99.90
15717;DHT22;7960;50.908;4.204;2023-07-02T03:06:50;16.60;99.90
15717;DHT22;7960;50.908;4.204;2023-07-02T03:09:18;16.60;99.90
15717;DHT22;7960;50.908;4.204;2023-07-02T03:11:46;16.50;99.90
15717;DHT22;7960;50.908;4.204;2023-07-02T03:14:13;16.50;99.90
15717;DHT22;7960;50.908;4.204;2023-07-02T03:16:40;16.50;99.90
15717;DHT22;7960;50.908;4.204;2023-07-02T03:19:07;16.40;99.90
15717;DHT22;7960;50.908;4.204;2023-07-02T03:21:35;16.50;99.90
15717;DHT22;7960;50.908;4.204;2023-07-02T03:24:02;16.50;99.90
15717;DHT22;7960;50.908;4.204;2023-07-02T03:26:29;16.50;99.90
15717;DHT22;7960;50.908;4.204;2023-07-02T03:28:56;16.40;99.90
15717;DHT22;7960;50.908;4.204;2023-07-02T03:31:23;16.40;99.90
15717;DHT22;7960;50.908;4.204;2023-07-02T03:33:49;16.50;99.90
15717;DHT22;7960;50.908;4.204;2023-07-02T03:36:16;16.50;99.90
15717;DHT22;7960;50.908;4.204;2023-07-02T03:38:44;16.40;99.90
15717;DHT22;7960;50.908;4.204;2023-07-02T03:41:11;16.40;99.90
15717;DHT22;7960;50.908;4.204;2023-07-02T03:43:38;16.40;99.90
15717;DHT22;7960;50.908;4.204;2023-07-02T03:46:05;16.40;99.90
15717;DHT22;7960;50.908;4.204;2023-07-02T03:48:31;16.40;99.90
15717;DHT22;7960;50.908;4.204;2023-07-02T03:50:58;16.40;99.90
15717;DHT22;7960;50.908;4.204;2023-07-02T03:53:25;16.40;99.90
15717;DHT22;7960;50.908;4.204;2023-07-02T03:55:53;16.40;99.90
15717;DHT22;7960;50.908;4.204;2023-07-02T03:58:20;16.40;99.90
15717;DHT22;7960;50.908;4.204;2023-07-02T04:00:47;16.40;99.90
15717;DHT22;7960;50.908;4.204;2023-07-02T04:03:15;16.40;99.90
15717;DHT22;7960;50.908;4.204;2023-07-02T04:05:42;16.40;99.90
15717;DHT22;7960;50.908;4.204;2023-07-02T04:08:09;16.30;99.90
15717;DHT22;7960;50.908;4.204;2023-07-02T04:10:36;16.30;99.90
15717;DHT22;7960;50.908;4.204;2023-07-02T04:13:05;16.30;99.90
15717;DHT22;7960;50.908;4.204;2023-07-02T04:15:31;16.30;99.90
15717;DHT22;7960;50.908;4.204;2023-07-02T04:17:58;16.30;99.90
15717;DHT22;7960;50.908;4.204;2023-07-02T04:20:25;16.40;99.90
15717;DHT22;7960;50.908;4.204;2023-07-02T04:22:54;16.30;99.90
15717;DHT22;7960;50.908;4.204;2023-07-02T04:25:21;16.30;99.90
15717;DHT22;7960;50.908;4.204;2023-07-02T04:27:47;16.10;99.90
15717;DHT22;7960;50.908;4.204;2023-07-02T04:30:16;16.00;99.90
15717;DHT22;7960;50.908;4.204;2023-07-02T04:32:43;16.10;99.90
15717;DHT22;7960;50.908;4.204;2023-07-02T04:35:10;16.20;99.90
15717;DHT22;7960;50.908;4.204;2023-07-02T04:37:37;16.20;99.90
15717;DHT22;7960;50.908;4.204;2023-07-02T04:40:05;16.20;99.90
15717;DHT22;7960;50.908;4.204;2023-07-02T04:42:35;16.00;99.90
15717;DHT22;7960;50.908;4.204;2023-07-02T04:45:03;16.10;99.90
15717;DHT22;7960;50.908;4.204;2023-07-02T04:47:32;16.00;99.90
15717;DHT22;7960;50.908;4.204;2023-07-02T04:49:59;16.10;99.90
15717;DHT22;7960;50.908;4.204;2023-07-02T04:52:26;16.10;99.90
15717;DHT22;7960;50.908;4.204;2023-07-02T04:54:52;16.00;99.90
15717;DHT22;7960;50.908;4.204;2023-07-02T04:57:21;16.00;99.90
15717;DHT22;7960;50.908;4.204;2023-07-02T04:59:48;16.10;99.90
15717;DHT22;7960;50.908;4.204;2023-07-02T05:02:15;16.10;99.90
15717;DHT22;7960;50.908;4.204;2023-07-02T05:04:43;16.20;99.90
15717;DHT22;7960;50.908;4.204;2023-07-02T05:07:10;16.00;99.90
15717;DHT22;7960;50.908;4.204;2023-07-02T05:09:36;16.10;99.90
15717;DHT22;7960;50.908;4.204;2023-07-02T05:12:04;16.20;99.90
15717;DHT22;7960;50.908;4.204;2023-07-02T05:14:30;16.30;99.90
15717;DHT22;7960;50.908;4.204;2023-07-02T05:16:57;16.20;99.90
15717;DHT22;7960;50.908;4.204;2023-07-02T05:19:24;16.30;99.90
15717;DHT22;7960;50.908;4.204;2023-07-02T05:21:52;16.30;99.90
15717;DHT22;7960;50.908;4.204;2023-07-02T05:24:19;16.30;99.90
15717;DHT22;7960;50.908;4.204;2023-07-02T05:26:46;16.30;99.90
15717;DHT22;7960;50.908;4.204;2023-07-02T05:29:13;16.40;99.90
15717;DHT22;7960;50.908;4.204;2023-07-02T05:31:41;16.40;99.90
15717;DHT22;7960;50.908;4.204;2023-07-02T05:34:07;16.40;99.90
15717;DHT22;7960;50.908;4.204;2023-07-02T05:36:34;16.30;99.90
15717;DHT22;7960;50.908;4.204;2023-07-02T05:39:03;16.30;99.90
15717;DHT22;7960;50.908;4.204;2023-07-02T05:41:29;16.30;99.90
15717;DHT22;7960;50.908;4.204;2023-07-02T05:43:56;16.30;99.90
15717;DHT22;7960;50.908;4.204;2023-07-02T05:46:23;16.30;99.90
15717;DHT22;7960;50.908;4.204;2023-07-02T05:48:50;16.20;99.90
15717;DHT22;7960;50.908;4.204;2023-07-02T05:51:20;16.30;99.90
15717;DHT22;7960;50.908;4.204;2023-07-02T05:53:47;16.40;99.90
15717;DHT22;7960;50.908;4.204;2023-07-02T05:56:16;16.30;99.90
15717;DHT22;7960;50.908;4.204;2023-07-02T05:58:43;16.40;99.90
15717;DHT22;7960;50.908;4.204;2023-07-02T06:01:09;16.50;99.90
15717;DHT22;7960;50.908;4.204;2023-07-02T06:03:36;16.50;99.90
15717;DHT22;7960;50.908;4.204;2023-07-02T06:06:03;16.50;99.90
15717;DHT22;7960;50.908;4.204;2023-07-02T06:08:30;16.50;99.90
15717;DHT22;7960;50.908;4.204;2023-07-02T06:10:57;16.60;99.90
15717;DHT22;7960;50.908;4.204;2023-07-02T06:13:25;16.60;99.90
15717;DHT22;7960;50.908;4.204;2023-07-02T06:15:52;16.60;99.90
15717;DHT22;7960;50.908;4.204;2023-07-02T06:18:19;16.80;99.90
15717;DHT22;7960;50.908;4.204;2023-07-02T06:20:46;16.70;99.90
15717;DHT22;7960;50.908;4.204;2023-07-02T06:23:13;16.80;99.90
15717;DHT22;7960;50.908;4.204;2023-07-02T06:25:40;16.70;99.90
15717;DHT22;7960;50.908;4.204;2023-07-02T06:28:06;16.70;99.90
15717;DHT22;7960;50.908;4.204;2023-07-02T06:30:35;16.70;99.90
15717;DHT22;7960;50.908;4.204;2023-07-02T06:33:02;16.90;99.90
15717;DHT22;7960;50.908;4.204;2023-07-02T06:35:28;17.00;99.90
15717;DHT22;7960;50.908;4.204;2023-07-02T06:37:55;17.10;99.90
15717;DHT22;7960;50.908;4.204;2023-07-02T06:40:22;17.20;99.90
15717;DHT22;7960;50.908;4.204;2023-07-02T06:42:49;17.20;99.90
15717;DHT22;7960;50.908;4.204;2023-07-02T06:45:16;17.20;99.90
15717;DHT22;7960;50.908;4.204;2023-07-02T06:47:44;17.20;99.90
15717;DHT22;7960;50.908;4.204;2023-07-02T06:50:11;17.20;99.90
15717;DHT22;7960;50.908;4.204;2023-07-02T06:52:38;17.30;99.90
15717;DHT22;7960;50.908;4.204;2023-07-02T06:55:05;17.40;99.90
15717;DHT22;7960;50.908;4.204;2023-07-02T06:57:32;17.50;99.90
15717;DHT22;7960;50.908;4.204;2023-07-02T06:59:58;17.50;99.90
15717;DHT22;7960;50.908;4.204;2023-07-02T07:02:26;17.50;99.90
15717;DHT22;7960;50.908;4.204;2023-07-02T07:04:54;17.60;99.90
15717;DHT22;7960;50.908;4.204;2023-07-02T07:07:21;17.60;99.90
15717;DHT22;7960;50.908;4.204;2023-07-02T07:09:48;17.70;99.90
15717;DHT22;7960;50.908;4.204;2023-07-02T07:12:14;17.70;99.90
15717;DHT22;7960;50.908;4.204;2023-07-02T07:14:41;17.70;99.90
15717;DHT22;7960;50.908;4.204;2023-07-02T07:17:09;17.80;99.90
15717;DHT22;7960;50.908;4.204;2023-07-02T07:19:35;17.90;99.90
15717;DHT22;7960;50.908;4.204;2023-07-02T07:22:04;17.90;99.90
15717;DHT22;7960;50.908;4.204;2023-07-02T07:24:31;17.90;99.90
15717;DHT22;7960;50.908;4.204;2023-07-02T07:26:57;18.10;99.90
15717;DHT22;7960;50.908;4.204;2023-07-02T07:29:24;18.00;99.90
15717;DHT22;7960;50.908;4.204;2023-07-02T07:31:51;18.10;99.90
15717;DHT22;7960;50.908;4.204;2023-07-02T07:34:18;18.10;99.90
15717;DHT22;7960;50.908;4.204;2023-07-02T07:36:45;18.10;99.90
15717;DHT22;7960;50.908;4.204;2023-07-02T07:39:13;18.20;99.90
15717;DHT22;7960;50.908;4.204;2023-07-02T07:41:40;18.20;99.90
15717;DHT22;7960;50.908;4.204;2023-07-02T07:44:06;18.30;99.90
15717;DHT22;7960;50.908;4.204;2023-07-02T07:46:33;18.40;99.90
15717;DHT22;7960;50.908;4.204;2023-07-02T07:49:00;18.40;99.90
15717;DHT22;7960;50.908;4.204;2023-07-02T07:51:28;18.60;99.90
15717;DHT22;7960;50.908;4.204;2023-07-02T07:53:55;18.60;99.90
15717;DHT22;7960;50.908;4.204;2023-07-02T07:56:23;18.70;99.90
15717;DHT22;7960;50.908;4.204;2023-07-02T07:58:50;18.70;99.90
15717;DHT22;7960;50.908;4.204;2023-07-02T08:01:16;18.70;99.90
15717;DHT22;7960;50.908;4.204;2023-07-02T08:03:43;18.50;99.90
15717;DHT22;7960;50.908;4.204;2023-07-02T08:06:10;18.60;99.90
15717;DHT22;7960;50.908;4.204;2023-07-02T08:08:37;18.50;99.90
15717;DHT22;7960;50.908;4.204;2023-07-02T08:11:04;18.70;99.90
15717;DHT22;7960;50.908;4.204;2023-07-02T08:13:32;18.70;99.90
15717;DHT22;7960;50.908;4.204;2023-07-02T08:15:59;18.70;99.90
15717;DHT22;7960;50.908;4.204;2023-07-02T08:18:26;18.70;99.90
15717;DHT22;7960;50.908;4.204;2023-07-02T08:20:52;18.70;99.90
15717;DHT22;7960;50.908;4.204;2023-07-02T08:23:19;18.90;99.90
15717;DHT22;7960;50.908;4.204;2023-07-02T08:25:46;19.10;99.90
15717;DHT22;7960;50.908;4.204;2023-07-02T08:28:13;19.20;99.90
15717;DHT22;7960;50.908;4.204;2023-07-02T08:30:41;19.30;99.90
15717;DHT22;7960;50.908;4.204;2023-07-02T08:33:08;19.40;99.90
15717;DHT22;7960;50.908;4.204;2023-07-02T08:35:36;19.30;99.90
15717;DHT22;7960;50.908;4.204;2023-07-02T08:38:02;19.30;99.90
15717;DHT22;7960;50.908;4.204;2023-07-02T08:40:29;19.30;99.00
15717;DHT22;7960;50.908;4.204;2023-07-02T08:42:56;19.20;98.90
15717;DHT22;7960;50.908;4.204;2023-07-02T08:45:23;19.10;99.10
15717;DHT22;7960;50.908;4.204;2023-07-02T08:47:52;19.10;99.20
15717;DHT22;7960;50.908;4.204;2023-07-02T08:50:22;19.10;99.40
15717;DHT22;7960;50.908;4.204;2023-07-02T08:52:49;19.20;99.60
15717;DHT22;7960;50.908;4.204;2023-07-02T08:55:16;19.20;98.90
15717;DHT22;7960;50.908;4.204;2023-07-02T08:57:52;19.10;99.20
15717;DHT22;7960;50.908;4.204;2023-07-02T09:00:20;19.00;99.70
15717;DHT22;7960;50.908;4.204;2023-07-02T09:02:47;18.90;99.90
15717;DHT22;7960;50.908;4.204;2023-07-02T09:05:15;18.80;99.90
15717;DHT22;7960;50.908;4.204;2023-07-02T09:07:46;18.90;99.90
15717;DHT22;7960;50.908;4.204;2023-07-02T09:10:24;19.10;99.90
15717;DHT22;7960;50.908;4.204;2023-07-02T09:13:02;19.20;99.90
15717;DHT22;7960;50.908;4.204;2023-07-02T09:15:35;19.20;99.90
15717;DHT22;7960;50.908;4.204;2023-07-02T09:18:02;19.30;99.90
15717;DHT22;7960;50.908;4.204;2023-07-02T09:20:33;19.20;99.90
15717;DHT22;7960;50.908;4.204;2023-07-02T09:23:00;19.30;99.90
15717;DHT22;7960;50.908;4.204;2023-07-02T09:25:34;19.10;99.50
15717;DHT22;7960;50.908;4.204;2023-07-02T09:28:01;19.00;99.00
15717;DHT22;7960;50.908;4.204;2023-07-02T09:30:27;18.90;99.30
15717;DHT22;7960;50.908;4.204;2023-07-02T09:32:54;18.70;99.70
15717;DHT22;7960;50.908;4.204;2023-07-02T09:35:33;18.70;99.90
15717;DHT22;7960;50.908;4.204;2023-07-02T09:38:00;18.80;99.90
15717;DHT22;7960;50.908;4.204;2023-07-02T09:40:27;18.70;99.90
15717;DHT22;7960;50.908;4.204;2023-07-02T09:42:55;18.70;99.90
15717;DHT22;7960;50.908;4.204;2023-07-02T09:45:23;18.90;99.90
15717;DHT22;7960;50.908;4.204;2023-07-02T09:47:50;18.90;99.90
15717;DHT22;7960;50.908;4.204;2023-07-02T09:50:18;19.00;99.90
15717;DHT22;7960;50.908;4.204;2023-07-02T09:52:48;19.10;99.90
15717;DHT22;7960;50.908;4.204;2023-07-02T09:55:15;19.50;98.80
15717;DHT22;7960;50.908;4.204;2023-07-02T09:57:43;19.90;98.00
15717;DHT22;7960;50.908;4.204;2023-07-02T10:00:14;20.00;97.10
15717;DHT22;7960;50.908;4.204;2023-07-02T10:02:41;20.00;96.30
15717;DHT22;7960;50.908;4.204;2023-07-02T10:05:08;19.70;96.40
15717;DHT22;7960;50.908;4.204;2023-07-02T10:07:35;19.70;96.90
15717;DHT22;7960;50.908;4.204;2023-07-02T10:10:04;19.70;97.00
15717;DHT22;7960;50.908;4.204;2023-07-02T10:12:32;19.60;96.90
15717;DHT22;7960;50.908;4.204;2023-07-02T10:14:59;19.70;96.60
15717;DHT22;7960;50.908;4.204;2023-07-02T10:17:27;19.80;96.00
15717;DHT22;7960;50.908;4.204;2023-07-02T10:19:57;19.80;95.80
15717;DHT22;7960;50.908;4.204;2023-07-02T10:22:24;19.80;95.40
15717;DHT22;7960;50.908;4.204;2023-07-02T10:24:52;19.70;95.30
15717;DHT22;7960;50.908;4.204;2023-07-02T10:27:32;19.60;95.50
15717;DHT22;7960;50.908;4.204;2023-07-02T10:29:59;19.50;95.40
15717;DHT22;7960;50.908;4.204;2023-07-02T10:32:27;19.50;95.70
15717;DHT22;7960;50.908;4.204;2023-07-02T10:34:54;19.50;96.00
15717;DHT22;7960;50.908;4.204;2023-07-02T10:37:21;19.60;96.30
15717;DHT22;7960;50.908;4.204;2023-07-02T10:39:48;20.00;95.90
15717;DHT22;7960;50.908;4.204;2023-07-02T10:42:17;20.10;95.30
15717;DHT22;7960;50.908;4.204;2023-07-02T10:44:50;20.10;94.50
15717;DHT22;7960;50.908;4.204;2023-07-02T10:47:17;20.10;94.30
15717;DHT22;7960;50.908;4.204;2023-07-02T10:49:44;19.90;93.80
15717;DHT22;7960;50.908;4.204;2023-07-02T10:52:11;19.70;94.10
15717;DHT22;7960;50.908;4.204;2023-07-02T10:54:41;19.60;94.30
15717;DHT22;7960;50.908;4.204;2023-07-02T10:57:09;19.70;94.50
15717;DHT22;7960;50.908;4.204;2023-07-02T10:59:37;19.70;94.60
15717;DHT22;7960;50.908;4.204;2023-07-02T11:02:06;19.80;94.60
15717;DHT22;7960;50.908;4.204;2023-07-02T11:04:33;19.90;94.60
15717;DHT22;7960;50.908;4.204;2023-07-02T11:07:00;20.10;94.20
15717;DHT22;7960;50.908;4.204;2023-07-02T11:09:27;20.00;93.40
15717;DHT22;7960;50.908;4.204;2023-07-02T11:11:55;20.10;93.70
15717;DHT22;7960;50.908;4.204;2023-07-02T11:14:30;20.20;93.10
15717;DHT22;7960;50.908;4.204;2023-07-02T11:16:57;20.10;93.00
15717;DHT22;7960;50.908;4.204;2023-07-02T11:19:26;20.10;92.70
15717;DHT22;7960;50.908;4.204;2023-07-02T11:21:53;20.50;93.10
15717;DHT22;7960;50.908;4.204;2023-07-02T11:24:28;21.00;93.40
15717;DHT22;7960;50.908;4.204;2023-07-02T11:26:55;21.30;91.90
15717;DHT22;7960;50.908;4.204;2023-07-02T11:29:22;21.30;91.40
15717;DHT22;7960;50.908;4.204;2023-07-02T11:31:49;21.20;91.80
15717;DHT22;7960;50.908;4.204;2023-07-02T11:34:17;21.10;91.50
15717;DHT22;7960;50.908;4.204;2023-07-02T11:36:46;21.00;92.10
15717;DHT22;7960;50.908;4.204;2023-07-02T11:39:13;20.90;91.80
15717;DHT22;7960;50.908;4.204;2023-07-02T11:41:43;20.70;91.70
15717;DHT22;7960;50.908;4.204;2023-07-02T11:44:10;20.90;91.90
15717;DHT22;7960;50.908;4.204;2023-07-02T11:46:37;21.10;91.80
15717;DHT22;7960;50.908;4.204;2023-07-02T11:49:04;20.90;90.90
15717;DHT22;7960;50.908;4.204;2023-07-02T11:51:34;20.80;90.90
15717;DHT22;7960;50.908;4.204;2023-07-02T11:54:03;20.90;91.20
15717;DHT22;7960;50.908;4.204;2023-07-02T11:56:30;21.00;91.00
15717;DHT22;7960;50.908;4.204;2023-07-02T11:58:57;21.10;90.70
15717;DHT22;7960;50.908;4.204;2023-07-02T12:01:24;21.10;90.60
15717;DHT22;7960;50.908;4.204;2023-07-02T12:03:51;21.10;90.70
15717;DHT22;7960;50.908;4.204;2023-07-02T12:06:18;21.10;91.00
15717;DHT22;7960;50.908;4.204;2023-07-02T12:08:45;21.10;90.50
15717;DHT22;7960;50.908;4.204;2023-07-02T12:11:13;21.50;90.80
15717;DHT22;7960;50.908;4.204;2023-07-02T12:13:41;21.70;90.00
15717;DHT22;7960;50.908;4.204;2023-07-02T12:16:08;21.70;90.00
15717;DHT22;7960;50.908;4.204;2023-07-02T12:18:35;21.80;89.60
15717;DHT22;7960;50.908;4.204;2023-07-02T12:21:01;21.60;89.10
15717;DHT22;7960;50.908;4.204;2023-07-02T12:23:28;21.60;89.00
15717;DHT22;7960;50.908;4.204;2023-07-02T12:25:55;22.10;89.50
15717;DHT22;7960;50.908;4.204;2023-07-02T12:28:24;22.20;88.20
15717;DHT22;7960;50.908;4.204;2023-07-02T12:30:50;22.70;87.70
15717;DHT22;7960;50.908;4.204;2023-07-02T12:33:17;23.00;85.40
15717;DHT22;7960;50.908;4.204;2023-07-02T12:35:44;23.00;82.90
15717;DHT22;7960;50.908;4.204;2023-07-02T12:38:12;23.00;82.60
15717;DHT22;7960;50.908;4.204;2023-07-02T12:40:39;23.20;84.20
15717;DHT22;7960;50.908;4.204;2023-07-02T12:43:06;23.50;81.50
15717;DHT22;7960;50.908;4.204;2023-07-02T12:45:34;23.40;80.60
15717;DHT22;7960;50.908;4.204;2023-07-02T12:48:01;23.50;79.80
15717;DHT22;7960;50.908;4.204;2023-07-02T12:50:28;23.50;79.80
15717;DHT22;7960;50.908;4.204;2023-07-02T12:52:55;23.10;79.50
15717;DHT22;7960;50.908;4.204;2023-07-02T12:55:22;23.10;81.00
15717;DHT22;7960;50.908;4.204;2023-07-02T12:57:49;23.20;80.60
15717;DHT22;7960;50.908;4.204;2023-07-02T13:00:16;23.00;81.30
15717;DHT22;7960;50.908;4.204;2023-07-02T13:02:44;22.60;79.60
15717;DHT22;7960;50.908;4.204;2023-07-02T13:05:12;22.30;81.50
15717;DHT22;7960;50.908;4.204;2023-07-02T13:07:39;23.00;82.80
15717;DHT22;7960;50.908;4.204;2023-07-02T13:10:07;23.50;81.70
15717;DHT22;7960;50.908;4.204;2023-07-02T13:12:34;23.90;80.30
15717;DHT22;7960;50.908;4.204;2023-07-02T13:15:00;24.30;77.90
15717;DHT22;7960;50.908;4.204;2023-07-02T13:17:27;23.90;77.50
15717;DHT22;7960;50.908;4.204;2023-07-02T13:19:56;23.50;78.00
15717;DHT22;7960;50.908;4.204;2023-07-02T13:22:23;23.20;79.00
15717;DHT22;7960;50.908;4.204;2023-07-02T13:24:49;22.90;79.30
15717;DHT22;7960;50.908;4.204;2023-07-02T13:27:17;22.90;79.70
15717;DHT22;7960;50.908;4.204;2023-07-02T13:29:45;23.20;79.00
15717;DHT22;7960;50.908;4.204;2023-07-02T13:32:12;23.10;79.00
15717;DHT22;7960;50.908;4.204;2023-07-02T13:34:38;22.90;77.10
15717;DHT22;7960;50.908;4.204;2023-07-02T13:37:08;23.30;78.20
15717;DHT22;7960;50.908;4.204;2023-07-02T13:39:34;23.20;77.20
15717;DHT22;7960;50.908;4.204;2023-07-02T13:42:01;23.40;77.60
15717;DHT22;7960;50.908;4.204;2023-07-02T13:44:28;23.70;77.50
15717;DHT22;7960;50.908;4.204;2023-07-02T13:46:55;23.80;78.30
15717;DHT22;7960;50.908;4.204;2023-07-02T13:49:22;24.10;75.40
15717;DHT22;7960;50.908;4.204;2023-07-02T13:51:49;24.50;74.60
15717;DHT22;7960;50.908;4.204;2023-07-02T13:54:17;24.70;74.10
15717;DHT22;7960;50.908;4.204;2023-07-02T13:56:45;25.20;73.10
15717;DHT22;7960;50.908;4.204;2023-07-02T13:59:15;24.70;70.50
15717;DHT22;7960;50.908;4.204;2023-07-02T14:01:42;23.90;71.70
15717;DHT22;7960;50.908;4.204;2023-07-02T14:04:10;24.00;72.70
15717;DHT22;7960;50.908;4.204;2023-07-02T14:06:37;24.50;73.20
15717;DHT22;7960;50.908;4.204;2023-07-02T14:09:04;24.60;72.10
15717;DHT22;7960;50.908;4.204;2023-07-02T14:11:32;24.30;71.30
15717;DHT22;7960;50.908;4.204;2023-07-02T14:13:59;24.60;70.40
15717;DHT22;7960;50.908;4.204;2023-07-02T14:16:27;25.00;71.30
15717;DHT22;7960;50.908;4.204;2023-07-02T14:18:54;24.90;69.70
15717;DHT22;7960;50.908;4.204;2023-07-02T14:21:21;24.90;69.60
15717;DHT22;7960;50.908;4.204;2023-07-02T14:23:48;25.10;68.30
15717;DHT22;7960;50.908;4.204;2023-07-02T14:26:14;25.10;68.30
15717;DHT22;7960;50.908;4.204;2023-07-02T14:28:41;25.10;67.90
15717;DHT22;7960;50.908;4.204;2023-07-02T14:31:08;24.90;67.10
15717;DHT22;7960;50.908;4.204;2023-07-02T14:33:37;24.70;67.40
15717;DHT22;7960;50.908;4.204;2023-07-02T14:36:05;24.40;67.60
15717;DHT22;7960;50.908;4.204;2023-07-02T14:38:33;24.30;68.00
15717;DHT22;7960;50.908;4.204;2023-07-02T14:41:00;24.60;68.50
15717;DHT22;7960;50.908;4.204;2023-07-02T14:43:29;24.60;65.70
15717;DHT22;7960;50.908;4.204;2023-07-02T14:45:57;24.50;65.10
15717;DHT22;7960;50.908;4.204;2023-07-02T14:48:24;24.30;65.40
15717;DHT22;7960;50.908;4.204;2023-07-02T14:50:54;24.10;67.30
15717;DHT22;7960;50.908;4.204;2023-07-02T14:53:22;24.50;67.80
15717;DHT22;7960;50.908;4.204;2023-07-02T14:55:49;24.70;68.40
15717;DHT22;7960;50.908;4.204;2023-07-02T14:58:17;24.70;67.90
15717;DHT22;7960;50.908;4.204;2023-07-02T15:00:44;24.50;67.50
15717;DHT22;7960;50.908;4.204;2023-07-02T15:03:12;23.80;65.50
15717;DHT22;7960;50.908;4.204;2023-07-02T15:05:39;23.60;67.60
15717;DHT22;7960;50.908;4.204;2023-07-02T15:08:07;23.50;69.20
15717;DHT22;7960;50.908;4.204;2023-07-02T15:10:35;23.80;70.10
15717;DHT22;7960;50.908;4.204;2023-07-02T15:13:04;23.80;70.00
15717;DHT22;7960;50.908;4.204;2023-07-02T15:15:31;23.40;69.80
15717;DHT22;7960;50.908;4.204;2023-07-02T15:17:58;23.70;70.30
15717;DHT22;7960;50.908;4.204;2023-07-02T15:20:25;24.00;69.80
15717;DHT22;7960;50.908;4.204;2023-07-02T15:22:52;23.80;70.10
15717;DHT22;7960;50.908;4.204;2023-07-02T15:25:20;24.30;70.00
15717;DHT22;7960;50.908;4.204;2023-07-02T15:27:47;24.80;69.90
15717;DHT22;7960;50.908;4.204;2023-07-02T15:30:14;24.90;67.20
15717;DHT22;7960;50.908;4.204;2023-07-02T15:32:41;24.90;66.80
15717;DHT22;7960;50.908;4.204;2023-07-02T15:35:08;25.00;66.20
15717;DHT22;7960;50.908;4.204;2023-07-02T15:37:35;24.40;65.80
15717;DHT22;7960;50.908;4.204;2023-07-02T15:40:02;23.90;68.10
15717;DHT22;7960;50.908;4.204;2023-07-02T15:42:31;23.60;69.40
15717;DHT22;7960;50.908;4.204;2023-07-02T15:44:58;23.20;70.50
15717;DHT22;7960;50.908;4.204;2023-07-02T15:47:25;23.10;71.50